Time;durP1;ratioP1;P1;durP2;ratioP2;P2;SDS_P1;SDS_P2;PMS_P1;PMS_P2;Temp;Humidity;BMP_temperature;BMP_pressure;BME280_temperature;BME280_humidity;BME280_pressure;Samples;Min_cycle;Max_cycle;Signal;HPM_P1;HPM_P2
2024/03/13 05:10:29;;;;;;;0.30;0.30;;;6.40;99.90;;;;;;4898885;29;20222;-55
2024/03/13 05:12:55;;;;;;;0.37;0.37;;;6.40;99.90;;;;;;4900168;29;20178;-52
2024/03/13 05:15:21;;;;;;;0.40;0.40;;;6.40;99.90;;;;;;4899843;29;20670;-55
2024/03/13 05:17:49;;;;;;;0.30;0.30;;;6.40;99.90;;;;;;4900222;29;20513;-56
2024/03/13 05:20:17;;;;;;;0.30;0.30;;;6.40;99.90;;;;;;4900613;29;20593;-54
2024/03/13 05:22:44;;;;;;;0.40;0.40;;;6.40;99.90;;;;;;4900168;29;20214;-52
2024/03/13 05:25:17;;;;;;;0.30;0.30;;;6.40;99.90;;;;;;4899471;29;20181;-51
2024/03/13 05:27:46;;;;;;;0.38;0.38;;;6.40;99.90;;;;;;4899960;29;20202;-54
2024/03/13 05:30:12;;;;;;;0.50;0.50;;;6.50;99.90;;;;;;4899829;29;20867;-53
2024/03/13 05:32:37;;;;;;;0.30;0.30;;;6.50;99.90;;;;;;4898549;29;20205;-50
2024/03/13 05:35:06;;;;;;;0.30;0.30;;;6.50;99.90;;;;;;4898884;29;20265;-54
2024/03/13 05:37:33;;;;;;;0.30;0.30;;;6.50;99.90;;;;;;4898963;29;20208;-56
2024/03/13 05:40:01;;;;;;;0.30;0.30;;;6.50;99.90;;;;;;4899667;29;20198;-50
2024/03/13 05:42:27;;;;;;;0.35;0.35;;;6.50;99.90;;;;;;4899656;29;20537;-54
2024/03/13 05:44:52;;;;;;;0.40;0.40;;;6.50;99.90;;;;;;4899355;29;20181;-50
2024/03/13 05:47:20;;;;;;;0.40;0.40;;;6.50;99.90;;;;;;4899377;29;20198;-51
2024/03/13 05:49:45;;;;;;;0.30;0.30;;;6.50;99.90;;;;;;4899608;29;20174;-50
2024/03/13 05:52:11;;;;;;;0.30;0.30;;;6.50;99.90;;;;;;4899142;29;20682;-50
2024/03/13 05:54:37;;;;;;;0.30;0.30;;;6.50;99.90;;;;;;4898516;29;20753;-53
2024/03/13 05:57:03;;;;;;;0.43;0.43;;;6.50;99.90;;;;;;4898169;29;20257;-51
2024/03/13 05:59:29;;;;;;;0.30;0.30;;;6.60;99.90;;;;;;4899207;29;20204;-55
2024/03/13 06:01:55;;;;;;;0.35;0.35;;;6.60;99.90;;;;;;4898626;29;20501;-52
2024/03/13 06:04:22;;;;;;;0.30;0.30;;;6.60;99.90;;;;;;4898701;29;20181;-60
2024/03/13 06:06:52;;;;;;;0.43;0.43;;;6.60;99.90;;;;;;4897350;29;20355;-50
2024/03/13 06:09:17;;;;;;;0.30;0.30;;;6.70;99.90;;;;;;4898884;29;20204;-54
2024/03/13 06:11:43;;;;;;;0.40;0.40;;;6.70;99.90;;;;;;4899057;29;20265;-54
2024/03/13 06:14:09;;;;;;;0.37;0.37;;;6.80;99.90;;;;;;4897756;29;20544;-55
2024/03/13 06:16:43;;;;;;;0.30;0.30;;;6.80;99.90;;;;;;4896060;29;20202;-54
2024/03/13 06:19:08;;;;;;;0.30;0.30;;;6.80;99.90;;;;;;4897984;29;20232;-51
2024/03/13 06:21:34;;;;;;;0.30;0.30;;;6.80;99.90;;;;;;4897599;29;20265;-53
2024/03/13 06:24:03;;;;;;;0.40;0.40;;;6.80;99.90;;;;;;4898168;29;20213;-51
2024/03/13 06:26:28;;;;;;;0.30;0.30;;;6.90;99.90;;;;;;4898490;29;20281;-55
2024/03/13 06:31:45;;;;;;;0.30;0.30;;;6.90;99.90;;;;;;4898788;29;20217;-53
2024/03/13 06:34:11;;;;;;;0.30;0.30;;;7.00;99.90;;;;;;4897832;29;20187;-54
2024/03/13 06:36:37;;;;;;;0.40;0.40;;;7.00;99.90;;;;;;4898257;29;20199;-50
2024/03/13 06:39:03;;;;;;;0.35;0.35;;;7.10;99.90;;;;;;4898634;29;20293;-57
2024/03/13 06:41:29;;;;;;;0.30;0.30;;;7.10;99.90;;;;;;4898980;29;20182;-55
2024/03/13 06:43:55;;;;;;;0.30;0.30;;;7.20;99.90;;;;;;4897052;29;20696;-56
2024/03/13 06:46:21;;;;;;;0.30;0.30;;;7.20;99.90;;;;;;4897148;29;20195;-56
2024/03/13 06:48:46;;;;;;;0.30;0.30;;;7.20;99.90;;;;;;4898259;29;20418;-58
2024/03/13 06:51:13;;;;;;;0.30;0.30;;;7.30;99.90;;;;;;4898115;29;20197;-57
2024/03/13 06:53:38;;;;;;;0.40;0.40;;;7.30;99.90;;;;;;4898227;29;20697;-57
2024/03/13 06:56:04;;;;;;;0.30;0.30;;;7.40;99.90;;;;;;4897723;29;20298;-57
2024/03/13 06:58:30;;;;;;;0.30;0.30;;;7.40;99.90;;;;;;4898185;29;20341;-51
2024/03/13 07:00:57;;;;;;;0.30;0.30;;;7.40;99.90;;;;;;4890706;29;20180;-57
2024/03/13 07:03:23;;;;;;;0.30;0.30;;;7.50;99.90;;;;;;4879478;29;20175;-53
2024/03/13 07:05:51;;;;;;;0.30;0.30;;;7.60;99.90;;;;;;4878771;29;20256;-53
2024/03/13 07:08:18;;;;;;;0.30;0.30;;;7.70;99.90;;;;;;4879028;29;20237;-51
2024/03/13 07:10:44;;;;;;;0.35;0.35;;;7.80;99.90;;;;;;4879602;29;20275;-57
2024/03/13 07:13:09;;;;;;;0.40;0.40;;;7.80;99.90;;;;;;4879512;29;20265;-51
2024/03/13 07:15:35;;;;;;;0.30;0.30;;;7.90;99.90;;;;;;4879100;29;20798;-56
2024/03/13 07:18:03;;;;;;;0.40;0.40;;;8.00;99.90;;;;;;4879110;29;20703;-51
2024/03/13 07:20:29;;;;;;;0.30;0.30;;;8.00;99.90;;;;;;4879116;29;20227;-53
2024/03/13 07:22:54;;;;;;;0.30;0.30;;;8.00;99.90;;;;;;4879379;29;20180;-54
2024/03/13 07:25:20;;;;;;;0.37;0.37;;;8.20;99.90;;;;;;4894655;29;20206;-55
2024/03/13 07:27:46;;;;;;;0.30;0.30;;;8.30;99.90;;;;;;4898126;29;20180;-57
2024/03/13 07:30:14;;;;;;;0.30;0.30;;;8.40;99.90;;;;;;4898012;29;20182;-55
2024/03/13 07:32:41;;;;;;;0.30;0.30;;;8.50;99.90;;;;;;4896656;29;20183;-50
2024/03/13 07:35:14;;;;;;;0.30;0.30;;;8.60;99.90;;;;;;4897380;29;20219;-54
2024/03/13 07:37:39;;;;;;;0.30;0.30;;;8.70;99.90;;;;;;4897995;29;20171;-53
2024/03/13 07:40:09;;;;;;;0.30;0.30;;;8.70;99.90;;;;;;4880528;29;20212;-54
2024/03/13 07:42:34;;;;;;;0.40;0.40;;;8.80;99.90;;;;;;4879074;29;20184;-53
2024/03/13 07:45:01;;;;;;;0.30;0.30;;;8.80;99.90;;;;;;4879000;29;20181;-59
2024/03/13 07:47:26;;;;;;;0.40;0.40;;;8.90;99.90;;;;;;4879119;29;20200;-52
2024/03/13 07:49:52;;;;;;;0.30;0.30;;;9.00;99.90;;;;;;4878028;29;20185;-56
2024/03/13 07:52:18;;;;;;;0.40;0.40;;;9.10;99.90;;;;;;4879087;29;20244;-53
2024/03/13 07:54:44;;;;;;;0.30;0.30;;;9.20;99.90;;;;;;4878686;29;20264;-53
2024/03/13 07:57:11;;;;;;;0.40;0.40;;;9.30;99.90;;;;;;4879127;29;20239;-50
2024/03/13 07:59:37;;;;;;;0.30;0.30;;;9.30;99.90;;;;;;4878971;29;20577;-49
2024/03/13 08:02:04;;;;;;;0.30;0.30;;;9.30;99.90;;;;;;4878744;29;20414;-52
2024/03/13 08:04:30;;;;;;;0.30;0.30;;;9.30;99.90;;;;;;4887026;29;20477;-55
2024/03/13 08:06:58;;;;;;;0.30;0.30;;;9.40;99.90;;;;;;4897343;29;20467;-48
2024/03/13 08:09:28;;;;;;;0.30;0.30;;;9.40;99.90;;;;;;4896734;29;20260;-48
2024/03/13 08:11:54;;;;;;;0.30;0.30;;;9.50;99.90;;;;;;4897841;29;20425;-53
2024/03/13 08:14:20;;;;;;;0.30;0.30;;;9.60;99.90;;;;;;4897704;29;20513;-57
2024/03/13 08:16:47;;;;;;;0.30;0.30;;;9.70;99.90;;;;;;4898771;29;20438;-52
2024/03/13 08:19:12;;;;;;;0.30;0.30;;;9.70;99.90;;;;;;4901306;29;20962;-48
2024/03/13 08:21:38;;;;;;;0.30;0.20;;;9.70;99.90;;;;;;4901008;29;20235;-51
2024/03/13 08:24:04;;;;;;;0.30;0.30;;;9.80;99.90;;;;;;4888683;29;20186;-52
2024/03/13 08:26:29;;;;;;;0.30;0.30;;;9.90;99.90;;;;;;4882035;29;20225;-55
2024/03/13 08:28:56;;;;;;;0.30;0.30;;;9.80;99.90;;;;;;4882364;29;20208;-54
2024/03/13 08:31:24;;;;;;;0.30;0.30;;;9.80;99.90;;;;;;4882387;29;20584;-51
2024/03/13 08:33:49;;;;;;;0.30;0.30;;;9.80;99.90;;;;;;4880969;29;20913;-50
2024/03/13 08:36:18;;;;;;;0.30;0.30;;;9.80;99.90;;;;;;4881859;29;20455;-56
2024/03/13 08:38:44;;;;;;;0.30;0.30;;;9.90;99.90;;;;;;4882363;29;20271;-53
2024/03/13 08:41:13;;;;;;;0.30;0.30;;;9.90;99.90;;;;;;4882234;29;20829;-55
2024/03/13 08:43:38;;;;;;;0.30;0.30;;;9.80;99.90;;;;;;4881031;29;20426;-56
2024/03/13 08:46:04;;;;;;;0.30;0.30;;;9.90;99.90;;;;;;4881439;29;20953;-51
2024/03/13 08:48:29;;;;;;;0.30;0.30;;;10.00;99.90;;;;;;4881830;29;20186;-53
2024/03/13 08:50:57;;;;;;;0.30;0.20;;;10.00;99.90;;;;;;4881993;29;20656;-54
2024/03/13 08:53:24;;;;;;;0.40;0.40;;;10.10;99.90;;;;;;4881967;29;20697;-53
2024/03/13 08:55:49;;;;;;;0.30;0.30;;;10.10;99.90;;;;;;4881442;29;20451;-52
2024/03/13 08:58:15;;;;;;;0.30;0.30;;;10.10;99.90;;;;;;4881909;29;20437;-50
2024/03/13 09:00:42;;;;;;;0.30;0.30;;;10.20;99.90;;;;;;4881853;29;20217;-50
2024/03/13 09:03:09;;;;;;;0.30;0.30;;;10.30;99.90;;;;;;4881903;29;20243;-55
2024/03/13 09:05:35;;;;;;;0.30;0.30;;;10.40;99.90;;;;;;4881408;29;20442;-53
2024/03/13 09:08:02;;;;;;;0.40;0.40;;;10.40;99.90;;;;;;4895460;29;20426;-53
2024/03/13 09:10:28;;;;;;;0.30;0.30;;;10.40;99.90;;;;;;4912838;29;20430;-55
2024/03/13 09:12:53;;;;;;;0.30;0.30;;;10.50;99.90;;;;;;4919094;29;20424;-56
2024/03/13 09:15:19;;;;;;;0.30;0.20;;;10.60;99.90;;;;;;4918555;29;20416;-54
2024/03/13 09:17:45;;;;;;;0.30;0.30;;;10.60;99.90;;;;;;4919128;29;20498;-51
2024/03/13 09:20:13;;;;;;;0.30;0.30;;;10.60;99.90;;;;;;4919135;29;20222;-51
2024/03/13 09:22:41;;;;;;;0.30;0.30;;;10.70;99.90;;;;;;4899598;29;20272;-56
2024/03/13 09:25:13;;;;;;;0.30;0.30;;;10.70;99.90;;;;;;4899855;29;20450;-56
2024/03/13 09:27:39;;;;;;;0.30;0.30;;;10.80;99.90;;;;;;4899048;29;20406;-54
2024/03/13 09:30:06;;;;;;;0.30;0.30;;;10.70;99.90;;;;;;4899717;29;20474;-53
2024/03/13 09:32:32;;;;;;;0.30;0.30;;;10.60;99.90;;;;;;4900200;29;20517;-47
2024/03/13 09:34:58;;;;;;;0.30;0.30;;;10.50;99.90;;;;;;4899517;29;20425;-49
2024/03/13 09:37:26;;;;;;;0.30;0.30;;;10.50;99.90;;;;;;4881144;29;20511;-49
2024/03/13 09:39:52;;;;;;;0.30;0.30;;;10.60;99.90;;;;;;4881176;29;20498;-53
2024/03/13 09:42:20;;;;;;;0.30;0.30;;;10.50;99.90;;;;;;4881307;29;20431;-55
2024/03/13 09:44:47;;;;;;;0.30;0.30;;;10.50;99.90;;;;;;4880638;29;20506;-51
2024/03/13 09:47:14;;;;;;;0.37;0.37;;;10.50;99.90;;;;;;4881051;29;20470;-55
2024/03/13 09:49:44;;;;;;;0.30;0.30;;;10.60;99.90;;;;;;4885121;29;20793;-55
2024/03/13 09:52:14;;;;;;;0.30;0.30;;;10.60;99.90;;;;;;4899625;29;20918;-53
2024/03/13 09:54:43;;;;;;;0.30;0.30;;;10.60;99.90;;;;;;4899240;29;20429;-54
2024/03/13 09:57:12;;;;;;;0.30;0.30;;;10.60;99.90;;;;;;4899437;29;20444;-54
2024/03/13 09:59:41;;;;;;;0.30;0.30;;;10.60;99.90;;;;;;4899649;29;20815;-54
2024/03/13 10:02:24;;;;;;;0.30;0.30;;;10.70;99.90;;;;;;4899361;29;20469;-53
2024/03/13 10:04:51;;;;;;;0.30;0.30;;;10.70;99.90;;;;;;4891065;29;20426;-48
2024/03/13 10:07:21;;;;;;;0.30;0.30;;;10.70;99.90;;;;;;4880336;29;20964;-51
2024/03/13 10:09:47;;;;;;;0.30;0.30;;;10.90;99.90;;;;;;4880201;29;20416;-52
2024/03/13 10:12:20;;;;;;;0.37;0.37;;;10.90;99.90;;;;;;4880437;29;20423;-52
2024/03/13 10:14:53;;;;;;;0.30;0.30;;;11.00;99.90;;;;;;4880102;29;20889;-55
2024/03/13 10:17:25;;;;;;;0.30;0.30;;;11.00;99.90;;;;;;4880334;29;20500;-52
2024/03/13 10:19:54;;;;;;;0.30;0.30;;;11.00;99.90;;;;;;4893299;29;20457;-53
2024/03/13 10:22:22;;;;;;;0.30;0.30;;;11.10;99.90;;;;;;4898819;29;20426;-49
2024/03/13 10:24:52;;;;;;;0.30;0.30;;;11.30;99.90;;;;;;4898581;29;20466;-52
2024/03/13 10:27:21;;;;;;;0.30;0.30;;;11.30;99.90;;;;;;4898791;29;20405;-53
2024/03/13 10:29:53;;;;;;;0.30;0.30;;;11.50;99.90;;;;;;4897592;29;20434;-48
2024/03/13 10:32:21;;;;;;;0.30;0.30;;;11.50;99.90;;;;;;4898959;29;20525;-54
2024/03/13 10:34:49;;;;;;;0.30;0.30;;;11.60;99.90;;;;;;4897247;29;20516;-50
2024/03/13 10:37:15;;;;;;;0.30;0.30;;;11.60;99.90;;;;;;4897722;29;20948;-49
2024/03/13 10:39:41;;;;;;;0.30;0.30;;;11.60;99.90;;;;;;4898558;29;20510;-50
2024/03/13 10:42:08;;;;;;;0.30;0.30;;;11.70;99.90;;;;;;4898894;29;20448;-51
2024/03/13 10:44:34;;;;;;;0.40;0.40;;;11.80;99.90;;;;;;4898095;29;20828;-56
2024/03/13 10:47:03;;;;;;;0.30;0.30;;;11.90;99.90;;;;;;4898491;29;20486;-53
2024/03/13 10:49:28;;;;;;;0.30;0.30;;;11.80;99.90;;;;;;4897718;29;20423;-56
2024/03/13 10:51:58;;;;;;;0.40;0.40;;;11.90;99.90;;;;;;4898615;29;20477;-55
2024/03/13 10:54:24;;;;;;;0.30;0.30;;;11.90;99.90;;;;;;4898669;29;20526;-53
2024/03/13 10:56:51;;;;;;;0.30;0.30;;;11.90;99.90;;;;;;4898277;29;20465;-55
2024/03/13 10:59:18;;;;;;;0.30;0.30;;;11.90;99.90;;;;;;4898361;29;20559;-54
2024/03/13 11:01:49;;;;;;;0.30;0.20;;;12.00;99.90;;;;;;4895678;29;20427;-59
2024/03/13 11:04:15;;;;;;;0.30;0.30;;;12.00;99.90;;;;;;4895425;29;20491;-55
2024/03/13 11:06:41;;;;;;;0.30;0.30;;;11.90;99.90;;;;;;4898024;29;20907;-56
2024/03/13 11:09:20;;;;;;;0.77;0.77;;;11.90;99.90;;;;;;4898476;29;20201;-56
2024/03/13 11:11:51;;;;;;;0.30;0.30;;;12.00;99.90;;;;;;4897012;29;20541;-56
2024/03/13 11:14:22;;;;;;;0.80;0.80;;;12.10;99.90;;;;;;4898211;29;20897;-52
2024/03/13 11:16:55;;;;;;;0.30;0.20;;;12.10;99.90;;;;;;4891796;29;20966;-56
2024/03/13 11:19:23;;;;;;;0.30;0.30;;;12.20;99.90;;;;;;4879143;29;20550;-54
2024/03/13 11:21:49;;;;;;;0.30;0.30;;;12.30;99.90;;;;;;4879418;29;20837;-55
2024/03/13 11:24:25;;;;;;;0.40;0.40;;;12.30;99.90;;;;;;4879500;29;20421;-55
2024/03/13 11:26:52;;;;;;;0.30;0.30;;;12.30;99.90;;;;;;4879042;29;20598;-54
2024/03/13 11:29:24;;;;;;;0.37;0.37;;;12.40;99.90;;;;;;4877860;29;20507;-53
2024/03/13 11:31:52;;;;;;;0.30;0.30;;;12.50;99.90;;;;;;4890982;29;20434;-54
2024/03/13 11:34:20;;;;;;;0.30;0.30;;;12.50;99.90;;;;;;4897762;29;20842;-54
2024/03/13 11:36:46;;;;;;;0.30;0.20;;;12.40;99.90;;;;;;4897554;29;20413;-56
2024/03/13 11:39:15;;;;;;;0.30;0.30;;;12.40;99.90;;;;;;4897453;29;20463;-53
2024/03/13 11:41:42;;;;;;;0.33;0.33;;;12.40;99.90;;;;;;4895641;29;20418;-54
2024/03/13 11:44:09;;;;;;;0.30;0.30;;;12.30;99.90;;;;;;4897578;29;20419;-52
2024/03/13 11:46:48;;;;;;;0.30;0.30;;;12.30;99.90;;;;;;4885105;29;20467;-51
2024/03/13 11:49:14;;;;;;;0.30;0.20;;;12.30;99.90;;;;;;4877402;29;20414;-52
2024/03/13 11:52:08;;;;;;;0.37;0.37;;;12.20;99.90;;;;;;4878468;29;20412;-55
2024/03/13 11:54:39;;;;;;;0.30;0.30;;;12.20;99.90;;;;;;4880400;29;20460;-56
2024/03/13 11:57:14;;;;;;;0.30;0.30;;;12.20;99.90;;;;;;4880815;29;20562;-56
2024/03/13 11:59:41;;;;;;;0.30;0.30;;;12.10;99.90;;;;;;4880883;29;20455;-56
2024/03/13 12:02:30;;;;;;;0.30;0.30;;;12.20;99.90;;;;;;4881424;29;20411;-56
2024/03/13 12:05:04;;;;;;;0.30;0.30;;;12.20;99.90;;;;;;4882227;29;20408;-55
2024/03/13 12:07:36;;;;;;;0.60;0.60;;;12.30;99.90;;;;;;4882663;29;20585;-55
2024/03/13 12:10:02;;;;;;;0.30;0.30;;;12.40;99.90;;;;;;4882503;29;20946;-53
2024/03/13 12:12:28;;;;;;;0.30;0.30;;;12.50;99.90;;;;;;4882596;29;20450;-53
2024/03/13 12:14:55;;;;;;;0.30;0.30;;;12.40;99.90;;;;;;4882051;29;20419;-53
2024/03/13 12:17:20;;;;;;;0.50;0.50;;;12.40;99.90;;;;;;4882340;29;20211;-55
2024/03/13 12:19:47;;;;;;;0.40;0.40;;;12.40;99.90;;;;;;4882351;29;20450;-53
2024/03/13 12:22:13;;;;;;;0.40;0.40;;;12.40;99.90;;;;;;4882317;29;20187;-54
2024/03/13 12:24:39;;;;;;;0.30;0.30;;;12.50;99.90;;;;;;4882189;29;20423;-55
2024/03/13 12:27:07;;;;;;;0.30;0.30;;;12.60;99.90;;;;;;4887767;29;20851;-54
2024/03/13 12:29:34;;;;;;;0.30;0.20;;;12.70;99.90;;;;;;4901204;29;20426;-52
2024/03/13 12:32:01;;;;;;;0.30;0.30;;;12.80;99.90;;;;;;4900859;29;20424;-55
2024/03/13 12:34:28;;;;;;;0.30;0.20;;;13.10;99.90;;;;;;4896114;29;20423;-54
2024/03/13 12:36:56;;;;;;;0.30;0.30;;;13.30;99.90;;;;;;4882038;29;20444;-53
2024/03/13 12:39:22;;;;;;;0.30;0.20;;;13.40;99.90;;;;;;4882139;29;20472;-55
2024/03/13 12:41:48;;;;;;;0.30;0.20;;;13.50;99.90;;;;;;4881951;29;20396;-56
2024/03/13 12:44:15;;;;;;;0.30;0.20;;;13.60;99.90;;;;;;4882161;29;20424;-51
2024/03/13 12:46:41;;;;;;;0.30;0.30;;;13.60;99.90;;;;;;4881580;29;20433;-53
2024/03/13 12:49:12;;;;;;;0.30;0.30;;;13.60;99.90;;;;;;4882123;29;20430;-53
2024/03/13 12:51:38;;;;;;;0.30;0.30;;;13.60;99.90;;;;;;4882125;29;20504;-51
2024/03/13 12:54:07;;;;;;;0.30;0.30;;;13.50;99.90;;;;;;4881891;29;20479;-53
2024/03/13 12:56:33;;;;;;;0.30;0.30;;;13.40;99.90;;;;;;4881297;29;20422;-54
2024/03/13 12:58:59;;;;;;;0.30;0.30;;;13.40;99.90;;;;;;4881950;29;20460;-54
2024/03/13 13:01:26;;;;;;;0.30;0.30;;;13.40;99.90;;;;;;4881670;29;20258;-56
2024/03/13 13:03:53;;;;;;;0.30;0.20;;;13.30;99.90;;;;;;4884728;29;20179;-54
2024/03/13 13:06:18;;;;;;;0.30;0.30;;;13.30;99.90;;;;;;4899477;29;20487;-53
2024/03/13 13:08:49;;;;;;;0.30;0.30;;;13.30;99.90;;;;;;4900076;29;20717;-61
2024/03/13 13:11:15;;;;;;;0.73;0.70;;;13.40;99.90;;;;;;4900302;29;20173;-61
2024/03/13 13:13:40;;;;;;;0.33;0.33;;;13.30;99.90;;;;;;4899825;29;20450;-61
2024/03/13 13:16:09;;;;;;;0.30;0.30;;;13.20;99.90;;;;;;4898568;29;20311;-61
2024/03/13 13:18:46;;;;;;;0.73;0.67;;;13.20;99.90;;;;;;4896380;29;20538;-60
2024/03/13 13:21:11;;;;;;;0.30;0.20;;;13.30;99.90;;;;;;4881306;29;20815;-60
2024/03/13 13:23:37;;;;;;;0.30;0.30;;;13.40;99.90;;;;;;4881139;29;20520;-59
2024/03/13 13:26:06;;;;;;;0.30;0.20;;;13.50;99.90;;;;;;4880720;29;20283;-59
2024/03/13 13:28:31;;;;;;;0.30;0.30;;;13.60;99.90;;;;;;4880960;29;20271;-60
2024/03/13 13:30:57;;;;;;;0.30;0.30;;;13.70;99.90;;;;;;4881001;29;20474;-59
2024/03/13 13:33:22;;;;;;;0.30;0.30;;;13.70;99.90;;;;;;4884276;29;20182;-61
2024/03/13 13:35:48;;;;;;;0.30;0.20;;;13.70;99.90;;;;;;4899194;29;20199;-58
2024/03/13 13:38:14;;;;;;;0.30;0.20;;;13.60;99.90;;;;;;4899817;29;20631;-55
2024/03/13 13:40:40;;;;;;;0.40;0.40;;;13.60;99.90;;;;;;4899392;29;20269;-56
2024/03/13 13:43:09;;;;;;;0.30;0.30;;;13.50;99.90;;;;;;4900119;29;20191;-57
2024/03/13 13:45:35;;;;;;;0.30;0.30;;;13.50;99.90;;;;;;4899220;29;20438;-55
2024/03/13 13:48:00;;;;;;;0.30;0.20;;;13.50;99.90;;;;;;4896477;29;20420;-53
2024/03/13 13:50:26;;;;;;;0.40;0.40;;;13.40;99.90;;;;;;4880576;29;20420;-55
2024/03/13 13:52:52;;;;;;;0.30;0.30;;;13.60;99.90;;;;;;4880841;29;20620;-53
2024/03/13 13:55:18;;;;;;;0.30;0.30;;;13.70;99.90;;;;;;4880469;29;20585;-54
2024/03/13 13:57:43;;;;;;;0.30;0.30;;;13.90;99.90;;;;;;4880575;29;20417;-61
2024/03/13 14:00:15;;;;;;;1.03;1.03;;;14.10;99.90;;;;;;4880600;29;20273;-54
2024/03/13 14:02:41;;;;;;;0.37;0.37;;;14.20;99.90;;;;;;4882642;29;20178;-53
2024/03/13 14:05:10;;;;;;;0.30;0.30;;;14.20;99.90;;;;;;4899052;29;20478;-57
2024/03/13 14:07:36;;;;;;;0.30;0.30;;;14.30;99.90;;;;;;4899264;29;20409;-55
2024/03/13 14:10:06;;;;;;;0.37;0.37;;;14.40;99.90;;;;;;4898871;29;20743;-53
2024/03/13 14:12:32;;;;;;;0.30;0.30;;;14.40;99.90;;;;;;4898921;29;20412;-51
2024/03/13 14:14:59;;;;;;;0.30;0.30;;;14.30;99.90;;;;;;4898099;29;20413;-48
2024/03/13 14:17:28;;;;;;;0.30;0.20;;;14.20;99.90;;;;;;4896565;29;20432;-48
2024/03/13 14:19:55;;;;;;;0.30;0.30;;;14.00;99.90;;;;;;4880320;29;20467;-49
2024/03/13 14:22:21;;;;;;;0.30;0.30;;;13.90;99.90;;;;;;4880487;29;20768;-49
2024/03/13 14:24:47;;;;;;;0.30;0.30;;;13.70;99.90;;;;;;4881827;29;20459;-56
2024/03/13 14:27:12;;;;;;;0.30;0.30;;;13.50;99.90;;;;;;4880057;29;20196;-52
2024/03/13 14:29:38;;;;;;;0.30;0.30;;;13.40;99.90;;;;;;4880069;29;20179;-52
2024/03/13 14:32:10;;;;;;;0.30;0.23;;;13.30;99.90;;;;;;4880126;29;20187;-53
2024/03/13 14:34:39;;;;;;;0.30;0.30;;;13.10;99.90;;;;;;4879835;29;20416;-54
2024/03/13 14:37:11;;;;;;;0.50;0.50;;;13.10;99.90;;;;;;4880134;29;20451;-52
2024/03/13 14:39:36;;;;;;;0.30;0.30;;;13.10;99.90;;;;;;4880051;29;20483;-52
2024/03/13 14:42:02;;;;;;;0.30;0.30;;;13.00;99.90;;;;;;4879949;29;20420;-51
2024/03/13 14:44:28;;;;;;;0.50;0.50;;;13.00;99.90;;;;;;4879588;29;20688;-56
2024/03/13 14:46:54;;;;;;;0.30;0.30;;;13.00;99.90;;;;;;4879143;29;20251;-53
2024/03/13 14:49:19;;;;;;;0.30;0.30;;;13.00;99.90;;;;;;4879850;29;20207;-54
2024/03/13 14:51:45;;;;;;;0.30;0.30;;;13.00;99.90;;;;;;4880359;29;20182;-57
2024/03/13 14:54:10;;;;;;;0.30;0.30;;;13.00;99.90;;;;;;4885942;29;20225;-56
2024/03/13 14:56:36;;;;;;;0.30;0.30;;;13.10;99.90;;;;;;4897915;29;20279;-54
2024/03/13 14:59:02;;;;;;;0.30;0.30;;;13.10;99.90;;;;;;4898553;29;20191;-53
2024/03/13 15:01:27;;;;;;;0.30;0.30;;;13.20;99.90;;;;;;4898466;29;20171;-53
2024/03/13 15:04:00;;;;;;;0.30;0.30;;;13.20;99.90;;;;;;4895143;29;20634;-53
2024/03/13 15:06:26;;;;;;;0.30;0.30;;;13.20;99.90;;;;;;4881070;29;20210;-54
2024/03/13 15:08:51;;;;;;;0.30;0.30;;;13.20;99.90;;;;;;4879449;29;20435;-56
2024/03/13 15:11:17;;;;;;;0.30;0.30;;;13.30;99.90;;;;;;4879519;29;20534;-56
2024/03/13 15:13:46;;;;;;;0.30;0.30;;;13.30;99.90;;;;;;4879649;29;20205;-52
2024/03/13 15:16:13;;;;;;;0.30;0.30;;;13.30;99.90;;;;;;4878935;29;20946;-55
2024/03/13 15:18:38;;;;;;;0.60;0.60;;;13.40;99.90;;;;;;4879168;29;20406;-59
2024/03/13 15:21:04;;;;;;;0.30;0.30;;;13.40;99.90;;;;;;4879262;29;20416;-54
2024/03/13 15:23:30;;;;;;;0.30;0.20;;;13.40;99.90;;;;;;4884399;29;20179;-57
2024/03/13 15:25:57;;;;;;;0.30;0.30;;;13.50;99.90;;;;;;4897616;29;20270;-56
2024/03/13 15:28:23;;;;;;;0.30;0.30;;;13.60;99.90;;;;;;4896896;29;20932;-56
2024/03/13 15:30:49;;;;;;;0.30;0.30;;;13.60;99.90;;;;;;4898150;29;20412;-54
2024/03/13 15:33:14;;;;;;;0.30;0.30;;;13.60;99.90;;;;;;4897976;29;20218;-56
2024/03/13 15:35:41;;;;;;;0.30;0.20;;;13.60;99.90;;;;;;4897550;29;20545;-57
2024/03/13 15:38:07;;;;;;;0.30;0.30;;;13.60;99.90;;;;;;4897240;29;20187;-57
2024/03/13 15:40:33;;;;;;;0.30;0.30;;;13.70;99.90;;;;;;4897802;29;20494;-57
2024/03/13 15:43:02;;;;;;;0.47;0.47;;;13.80;99.90;;;;;;4897853;29;20382;-54
2024/03/13 15:45:28;;;;;;;0.30;0.30;;;13.80;99.90;;;;;;4897654;29;21598;-56
2024/03/13 15:47:53;;;;;;;0.30;0.30;;;13.80;99.90;;;;;;4898013;29;20775;-57
2024/03/13 15:50:20;;;;;;;0.30;0.30;;;13.80;99.90;;;;;;4897990;29;20238;-57
2024/03/13 15:52:46;;;;;;;0.30;0.30;;;13.80;99.90;;;;;;4894173;29;20642;-54
2024/03/13 15:55:11;;;;;;;0.37;0.37;;;13.80;99.90;;;;;;4878581;29;20533;-57
2024/03/13 15:57:38;;;;;;;0.30;0.30;;;13.80;99.90;;;;;;4878835;29;20183;-55
2024/03/13 16:00:12;;;;;;;0.30;0.20;;;13.80;99.90;;;;;;4886011;29;20254;-55
2024/03/13 16:02:39;;;;;;;0.30;0.27;;;13.80;99.90;;;;;;4897958;29;20414;-56
2024/03/13 16:05:06;;;;;;;0.30;0.20;;;13.90;99.90;;;;;;4887282;29;20569;-58
2024/03/13 16:07:37;;;;;;;0.30;0.30;;;13.90;99.90;;;;;;4878940;29;20422;-54
2024/03/13 16:10:03;;;;;;;0.30;0.30;;;13.90;99.90;;;;;;4878708;29;20441;-53
2024/03/13 16:12:29;;;;;;;0.30;0.30;;;13.90;99.90;;;;;;4879222;29;20456;-54
2024/03/13 16:14:55;;;;;;;0.30;0.30;;;13.90;99.90;;;;;;4878500;29;20507;-56
2024/03/13 16:17:21;;;;;;;0.60;0.60;;;13.90;99.90;;;;;;4879295;29;20212;-57
2024/03/13 16:19:47;;;;;;;0.30;0.20;;;13.80;99.90;;;;;;4879003;29;20758;-57
2024/03/13 16:22:13;;;;;;;0.30;0.30;;;13.80;99.90;;;;;;4896714;29;20187;-55
2024/03/13 16:24:39;;;;;;;0.30;0.30;;;13.80;99.90;;;;;;4897301;29;20579;-56
2024/03/13 16:27:06;;;;;;;0.30;0.30;;;13.80;99.90;;;;;;4897395;29;20474;-52
2024/03/13 16:29:31;;;;;;;0.30;0.30;;;13.70;99.90;;;;;;4897563;29;20541;-57
2024/03/13 16:31:57;;;;;;;0.30;0.20;;;13.60;99.90;;;;;;4897294;29;20427;-57
2024/03/13 16:34:23;;;;;;;0.30;0.30;;;13.60;99.90;;;;;;4897289;29;20642;-55
2024/03/13 16:36:48;;;;;;;0.30;0.30;;;13.60;99.90;;;;;;4880186;29;20622;-58
2024/03/13 16:39:17;;;;;;;0.30;0.30;;;13.70;99.90;;;;;;4881987;29;20227;-54
2024/03/13 16:41:42;;;;;;;0.30;0.30;;;13.70;99.90;;;;;;4882076;29;20189;-56
2024/03/13 16:44:08;;;;;;;0.40;0.40;;;13.70;99.90;;;;;;4881715;29;20405;-54
2024/03/13 16:46:33;;;;;;;0.30;0.30;;;13.60;99.90;;;;;;4896275;29;20203;-57
2024/03/13 16:48:59;;;;;;;0.30;0.30;;;13.60;99.90;;;;;;4900716;29;20191;-58
2024/03/13 16:51:24;;;;;;;0.30;0.30;;;13.60;99.90;;;;;;4900682;29;20183;-56
2024/03/13 16:53:50;;;;;;;0.30;0.30;;;13.60;99.90;;;;;;4900530;29;20182;-55
2024/03/13 16:56:16;;;;;;;0.30;0.30;;;13.60;99.90;;;;;;4900020;29;20214;-55
2024/03/13 16:58:41;;;;;;;0.50;0.50;;;13.50;99.90;;;;;;4900407;29;20620;-55
2024/03/13 17:01:07;;;;;;;0.30;0.30;;;13.50;99.90;;;;;;4886636;29;20262;-56
2024/03/13 17:03:32;;;;;;;0.30;0.30;;;13.50;99.90;;;;;;4881730;29;20220;-54
2024/03/13 17:05:59;;;;;;;0.30;0.30;;;13.40;99.90;;;;;;4881330;29;20195;-55
2024/03/13 17:08:25;;;;;;;0.30;0.30;;;13.40;99.90;;;;;;4881406;29;20187;-56
2024/03/13 17:10:50;;;;;;;0.40;0.40;;;13.40;99.90;;;;;;4881443;29;20422;-55
2024/03/13 17:13:16;;;;;;;0.33;0.33;;;13.40;99.90;;;;;;4881429;29;20542;-56
2024/03/13 17:15:41;;;;;;;0.30;0.30;;;13.30;99.90;;;;;;4880963;29;20294;-56
2024/03/13 17:18:07;;;;;;;0.30;0.30;;;13.30;99.90;;;;;;4881304;29;20198;-56
2024/03/13 17:20:33;;;;;;;0.30;0.30;;;13.20;99.90;;;;;;4881063;29;20559;-58
2024/03/13 17:22:59;;;;;;;0.30;0.30;;;13.20;99.90;;;;;;4880878;29;20415;-56
2024/03/13 17:25:26;;;;;;;0.50;0.50;;;13.10;99.90;;;;;;4880993;29;20483;-52
2024/03/13 17:27:52;;;;;;;0.30;0.30;;;13.10;99.90;;;;;;4881515;29;20747;-57
2024/03/13 17:30:18;;;;;;;0.43;0.43;;;13.00;99.90;;;;;;4891838;29;20449;-55
2024/03/13 17:32:44;;;;;;;0.30;0.30;;;13.00;99.90;;;;;;4899541;29;20523;-55
2024/03/13 17:35:10;;;;;;;0.30;0.30;;;12.90;99.90;;;;;;4898781;29;20417;-57
2024/03/13 17:37:35;;;;;;;0.33;0.33;;;12.90;99.90;;;;;;4896931;29;20213;-57
2024/03/13 17:40:02;;;;;;;0.30;0.30;;;12.80;99.90;;;;;;4880381;29;20471;-57
2024/03/13 17:42:28;;;;;;;0.30;0.20;;;12.80;99.90;;;;;;4880541;29;20187;-55
2024/03/13 17:44:56;;;;;;;0.40;0.40;;;12.80;99.90;;;;;;4880421;29;20412;-54
2024/03/13 17:47:23;;;;;;;0.30;0.30;;;12.80;99.90;;;;;;4899264;29;20227;-53
2024/03/13 17:49:49;;;;;;;0.30;0.30;;;12.70;99.90;;;;;;4898233;29;20422;-52
2024/03/13 17:52:14;;;;;;;0.40;0.40;;;12.70;99.90;;;;;;4899252;29;20419;-53
2024/03/13 17:54:40;;;;;;;0.30;0.30;;;12.60;99.90;;;;;;4898964;29;21120;-52
2024/03/13 17:57:06;;;;;;;0.30;0.30;;;12.60;99.90;;;;;;4898900;29;20194;-56
2024/03/13 17:59:32;;;;;;;0.30;0.30;;;12.50;99.90;;;;;;4898994;29;20276;-59
2024/03/13 18:01:58;;;;;;;0.50;0.37;;;12.50;99.90;;;;;;4880342;29;20875;-57